createdAt,value
2019-05-11T00:00:07.764Z,6.25
2019-05-11T00:05:10.126Z,7.25
2019-05-11T00:07:42.494Z,7.20
2019-05-11T00:10:14.079Z,5.05
2019-05-11T00:12:45.650Z,6.17
2019-05-11T00:15:19.749Z,5.65
2019-05-11T00:17:52.364Z,7.78
2019-05-11T00:20:23.859Z,6.42
2019-05-11T00:22:55.149Z,8.43
2019-05-11T00:25:28.149Z,5.53
2019-05-11T00:27:59.675Z,7.05
2019-05-11T00:30:31.148Z,5.75
2019-05-11T00:33:02.701Z,6.97
2019-05-11T00:35:34.132Z,8.00
2019-05-11T00:38:05.574Z,9.63
2019-05-11T00:40:37.090Z,7.85
2019-05-11T00:43:08.770Z,7.53
2019-05-11T00:45:40.222Z,7.55
2019-05-11T00:48:11.635Z,7.75
2019-05-11T00:50:43.073Z,7.00
2019-05-11T00:53:14.574Z,7.65
2019-05-11T00:55:45.950Z,7.62
2019-05-11T00:58:17.483Z,6.75
2019-05-11T01:00:48.946Z,9.83
2019-05-11T01:03:20.500Z,6.70
2019-05-11T01:05:51.991Z,9.65
2019-05-11T01:08:23.655Z,12.93
2019-05-11T01:10:55.505Z,7.53
2019-05-11T01:13:27.070Z,11.38
2019-05-11T01:15:58.483Z,9.33
2019-05-11T01:18:30.030Z,8.90
2019-05-11T01:21:02.523Z,10.10
2019-05-11T01:23:35.083Z,13.55
2019-05-11T01:26:08.363Z,8.88
2019-05-11T01:28:40.993Z,10.20
2019-05-11T01:31:12.829Z,12.23
2019-05-11T01:33:44.471Z,11.30
2019-05-11T01:36:16.287Z,10.58
2019-05-11T01:38:48.039Z,13.80
2019-05-11T01:41:19.505Z,13.03
2019-05-11T01:43:51.315Z,11.10
2019-05-11T01:46:23.037Z,11.57
2019-05-11T01:48:54.484Z,13.18
2019-05-11T01:51:26.176Z,13.58
2019-05-11T01:53:58.047Z,12.65
2019-05-11T01:56:29.486Z,15.50
2019-05-11T01:59:00.796Z,15.08
2019-05-11T02:01:34.453Z,16.07
2019-05-11T02:04:06.136Z,14.00
2019-05-11T02:06:37.766Z,15.98
2019-05-11T02:09:12.017Z,19.37
2019-05-11T02:11:43.828Z,15.35
2019-05-11T02:14:15.752Z,15.23
2019-05-11T02:16:47.245Z,19.02
2019-05-11T02:19:18.856Z,16.65
2019-05-11T02:21:52.702Z,13.10
2019-05-11T02:24:24.468Z,16.97
2019-05-11T02:27:00.095Z,16.65
2019-05-11T02:29:31.613Z,13.78
2019-05-11T02:32:03.062Z,14.90
2019-05-11T02:34:34.779Z,15.60
2019-05-11T02:37:06.421Z,14.68
2019-05-11T02:39:37.946Z,16.40
2019-05-11T02:42:09.475Z,13.50
2019-05-11T02:44:40.892Z,14.43
2019-05-11T02:47:12.454Z,16.60
2019-05-11T02:49:44.209Z,14.73
2019-05-11T02:52:17.091Z,14.58
2019-05-11T02:54:50.489Z,13.78
2019-05-11T02:57:21.944Z,12.93
2019-05-11T02:59:54.637Z,14.47
2019-05-11T03:02:26.002Z,14.28
2019-05-11T03:04:57.675Z,13.35
2019-05-11T03:07:29.050Z,14.80
2019-05-11T03:10:00.951Z,14.13
2019-05-11T03:12:32.643Z,11.75
2019-05-11T03:15:06.328Z,9.63
2019-05-11T03:17:37.612Z,11.33
2019-05-11T03:20:09.167Z,13.38
2019-05-11T03:22:41.024Z,9.65
2019-05-11T03:25:12.521Z,11.20
2019-05-11T03:27:45.453Z,13.40
2019-05-11T03:30:17.184Z,13.70
2019-05-11T03:32:48.862Z,13.05
2019-05-11T03:35:20.430Z,14.38
2019-05-11T03:37:52.140Z,13.32
2019-05-11T03:40:23.753Z,14.18
2019-05-11T03:42:56.031Z,15.10
2019-05-11T03:45:27.981Z,18.82
2019-05-11T03:47:59.533Z,15.18
2019-05-11T03:50:31.343Z,12.63
2019-05-11T03:53:02.735Z,18.37
2019-05-11T03:55:35.088Z,19.42
2019-05-11T03:58:06.751Z,16.82
2019-05-11T04:00:38.416Z,14.10
2019-05-11T04:03:10.094Z,17.50
2019-05-11T04:05:43.746Z,16.25
2019-05-11T04:08:15.236Z,13.88
2019-05-11T04:10:47.550Z,13.00
2019-05-11T04:13:19.123Z,13.22
2019-05-11T04:15:51.014Z,11.53
2019-05-11T04:18:22.639Z,9.48
2019-05-11T04:20:54.196Z,10.32
2019-05-11T04:23:25.783Z,10.30
2019-05-11T04:25:57.425Z,6.78
2019-05-11T04:28:30.736Z,10.18
2019-05-11T04:31:02.230Z,8.55
2019-05-11T04:33:35.485Z,12.58
2019-05-11T04:36:08.727Z,15.48
2019-05-11T04:38:41.816Z,9.53
2019-05-11T04:41:13.382Z,8.18
2019-05-11T04:43:47.128Z,9.35
2019-05-11T04:46:18.560Z,6.97
2019-05-11T04:48:49.961Z,9.70
2019-05-11T04:51:21.550Z,8.35
2019-05-11T04:53:53.018Z,9.85
2019-05-11T04:56:24.453Z,7.65
2019-05-11T04:58:57.829Z,8.18
2019-05-11T05:01:29.259Z,8.45
2019-05-11T05:04:13.226Z,6.58
2019-05-11T05:06:33.942Z,9.33
2019-05-11T05:09:08.327Z,11.80
2019-05-11T05:11:40.243Z,8.20
2019-05-11T05:14:12.147Z,7.10
2019-05-11T05:16:43.630Z,7.85
2019-05-11T05:19:15.106Z,8.40
2019-05-11T05:21:46.860Z,10.45
2019-05-11T05:24:21.913Z,9.40
2019-05-11T05:26:53.468Z,14.43
2019-05-11T05:29:26.443Z,10.28
2019-05-11T05:31:58.270Z,10.98
2019-05-11T05:34:29.920Z,11.30
2019-05-11T05:37:02.191Z,10.13
2019-05-11T05:39:33.706Z,10.58
2019-05-11T05:42:06.430Z,13.40
2019-05-11T05:44:38.125Z,9.90
2019-05-11T05:47:09.705Z,14.38
2019-05-11T05:49:41.484Z,10.50
2019-05-11T05:52:13.199Z,15.00
2019-05-11T05:54:45.991Z,12.37
2019-05-11T05:57:21.031Z,12.43
2019-05-11T05:59:52.567Z,11.08
2019-05-11T06:02:26.489Z,8.93
2019-05-11T06:04:58.893Z,18.65
2019-05-11T06:07:31.631Z,12.33
2019-05-11T06:10:04.428Z,12.65
2019-05-11T06:12:36.042Z,13.50
2019-05-11T06:15:08.558Z,17.00
2019-05-11T06:17:40.416Z,18.17
2019-05-11T06:20:13.899Z,12.33
2019-05-11T06:22:45.431Z,14.33
2019-05-11T06:25:17.066Z,19.87
2019-05-11T06:27:48.613Z,19.77
2019-05-11T06:30:23.159Z,13.15
2019-05-11T06:32:57.708Z,13.95
2019-05-11T06:35:33.378Z,14.53
2019-05-11T06:38:05.164Z,10.68
2019-05-11T06:40:37.578Z,12.03
2019-05-11T06:43:09.961Z,10.38
2019-05-11T06:45:42.541Z,10.65
2019-05-11T06:48:14.540Z,12.43
2019-05-11T06:50:46.424Z,7.50
2019-05-11T06:53:18.463Z,13.08
2019-05-11T06:55:49.981Z,8.70
2019-05-11T06:58:21.600Z,10.63
2019-05-11T07:00:54.238Z,7.72
2019-05-11T07:03:26.769Z,5.40
2019-05-11T07:05:58.145Z,3.87
2019-05-11T07:11:02.596Z,6.03
2019-05-11T07:13:39.818Z,5.25
2019-05-11T07:16:12.219Z,4.72
2019-05-11T07:18:43.789Z,6.85
2019-05-11T07:21:16.344Z,8.03
2019-05-11T07:23:47.774Z,5.22
2019-05-11T07:26:19.254Z,6.60
2019-05-11T07:28:50.569Z,3.60
2019-05-11T07:31:23.634Z,3.20
2019-05-11T07:33:58.739Z,15.00
2019-05-11T07:36:32.570Z,7.10
2019-05-11T07:39:08.486Z,4.70
2019-05-11T07:41:41.401Z,6.03
2019-05-11T07:44:12.970Z,5.90
2019-05-11T07:46:44.590Z,4.17
2019-05-11T07:49:17.933Z,3.25
2019-05-11T07:51:49.317Z,5.45
2019-05-11T07:54:21.987Z,4.65
2019-05-11T07:56:53.507Z,3.87
2019-05-11T07:59:24.996Z,4.20
2019-05-11T08:01:58.332Z,3.47
2019-05-11T08:04:32.102Z,3.95
2019-05-11T08:07:03.674Z,5.22
2019-05-11T08:09:35.004Z,4.85
2019-05-11T08:12:08.751Z,6.17
2019-05-11T08:14:56.817Z,5.47
2019-05-11T08:17:14.718Z,5.03
2019-05-11T08:19:47.619Z,3.15
2019-05-11T08:22:22.665Z,3.50
2019-05-11T08:24:52.637Z,1.60
2019-05-11T08:27:28.549Z,2.70
2019-05-11T08:30:08.368Z,3.75
2019-05-11T08:32:41.924Z,5.35
2019-05-11T08:35:13.825Z,3.60
2019-05-11T08:37:47.720Z,2.98
2019-05-11T08:40:20.891Z,2.83
2019-05-11T08:42:53.936Z,6.67
2019-05-11T08:45:29.775Z,2.42
2019-05-11T08:48:02.916Z,6.17
2019-05-11T08:50:38.400Z,4.28
2019-05-11T08:53:17.705Z,3.70
2019-05-11T08:55:49.199Z,2.42
2019-05-11T08:58:23.662Z,15.20
2019-05-11T09:00:58.205Z,2.25
2019-05-11T09:03:31.985Z,3.67
2019-05-11T09:06:03.897Z,6.72
2019-05-11T09:08:38.835Z,8.15
2019-05-11T09:11:14.098Z,2.17
2019-05-11T09:13:48.846Z,3.98
2019-05-11T09:16:21.315Z,2.95
2019-05-11T09:18:52.626Z,3.37
2019-05-11T09:21:23.989Z,3.75
2019-05-11T09:23:57.859Z,2.12
2019-05-11T09:26:29.591Z,4.67
2019-05-11T09:29:11.354Z,3.75
2019-05-11T09:31:44.117Z,4.33
2019-05-11T09:34:18.085Z,4.58
2019-05-11T09:36:49.699Z,4.90
2019-05-11T09:39:21.120Z,7.67
2019-05-11T09:41:54.770Z,2.83
2019-05-11T09:44:29.578Z,5.28
2019-05-11T09:47:02.818Z,10.23
2019-05-11T09:49:46.399Z,2.80
2019-05-11T09:52:10.719Z,5.87
2019-05-11T09:54:42.245Z,33.50
2019-05-11T09:57:14.184Z,22.40
2019-05-11T09:59:50.167Z,10.53
2019-05-11T10:02:28.674Z,3.58
2019-05-11T10:05:00.653Z,6.22
2019-05-11T10:07:35.156Z,4.03
2019-05-11T10:10:09.164Z,6.00
2019-05-11T10:12:44.690Z,5.40
2019-05-11T10:15:18.600Z,4.37
2019-05-11T10:17:49.728Z,8.10
2019-05-11T10:20:22.442Z,3.60
2019-05-11T10:22:57.962Z,5.62
2019-05-11T10:25:29.736Z,6.12
2019-05-11T10:28:01.395Z,4.97
2019-05-11T10:30:32.812Z,8.28
2019-05-11T10:33:04.615Z,3.72
2019-05-11T10:35:38.577Z,4.12
2019-05-11T10:38:11.022Z,9.45
2019-05-11T10:40:48.047Z,8.98
2019-05-11T10:43:30.443Z,5.37
2019-05-11T10:46:16.088Z,7.87
2019-05-11T10:48:36.016Z,11.35
2019-05-11T10:51:08.250Z,8.43
2019-05-11T10:53:41.105Z,7.78
2019-05-11T10:56:17.879Z,7.60
2019-05-11T10:59:01.627Z,10.75
2019-05-11T11:01:38.030Z,6.87
2019-05-11T11:04:10.709Z,10.32
2019-05-11T11:06:43.681Z,7.17
2019-05-11T11:09:19.120Z,9.65
2019-05-11T11:11:52.531Z,10.13
2019-05-11T11:14:28.794Z,8.30
2019-05-11T11:17:04.963Z,14.70
2019-05-11T11:19:43.004Z,11.97
2019-05-11T11:22:33.268Z,13.70
2019-05-11T11:24:49.871Z,9.48
2019-05-11T11:27:22.911Z,11.78
2019-05-11T11:29:58.116Z,11.78
2019-05-11T11:32:29.088Z,12.53
2019-05-11T11:35:02.901Z,13.53
2019-05-11T11:37:38.476Z,9.00
2019-05-11T11:40:09.945Z,12.05
2019-05-11T11:42:43.603Z,14.07
2019-05-11T11:45:18.299Z,25.95
2019-05-11T11:47:50.747Z,12.25
2019-05-11T11:50:23.049Z,16.37
2019-05-11T11:52:54.712Z,133.03
2019-05-11T11:55:26.248Z,16.73
2019-05-11T11:57:59.111Z,11.65
2019-05-11T12:00:30.584Z,17.73
2019-05-11T12:03:02.071Z,8.00
2019-05-11T12:05:33.396Z,8.53
2019-05-11T12:08:04.749Z,9.33
2019-05-11T12:10:37.975Z,11.48
2019-05-11T12:13:10.520Z,11.65
2019-05-11T12:15:44.187Z,11.30
2019-05-11T12:18:15.967Z,8.85
2019-05-11T12:20:48.136Z,10.28
2019-05-11T12:23:19.775Z,17.50
2019-05-11T12:25:51.977Z,11.90
2019-05-11T12:28:25.107Z,11.28
2019-05-11T12:30:58.556Z,11.70
2019-05-11T12:33:34.877Z,13.17
2019-05-11T12:36:07.915Z,63.63
2019-05-11T12:38:41.657Z,14.13
2019-05-11T12:41:13.701Z,13.28
2019-05-11T12:43:45.099Z,12.98
2019-05-11T12:46:18.849Z,13.65
2019-05-11T12:48:50.301Z,13.22
2019-05-11T12:51:22.409Z,11.60
2019-05-11T12:54:04.308Z,15.15
2019-05-11T12:56:38.249Z,13.28
2019-05-11T12:59:14.460Z,13.98
2019-05-11T13:01:48.530Z,165.82
2019-05-11T13:06:53.088Z,30.90
2019-05-11T13:09:30.072Z,15.15
2019-05-11T13:12:02.389Z,11.90
2019-05-11T13:14:38.176Z,12.78
2019-05-11T13:17:09.912Z,11.85
2019-05-11T13:19:48.040Z,12.37
2019-05-11T13:22:19.571Z,15.15
2019-05-11T13:24:52.210Z,13.90
2019-05-11T13:27:25.292Z,14.05
2019-05-11T13:29:59.201Z,13.20
2019-05-11T13:32:31.049Z,11.63
2019-05-11T13:35:09.179Z,16.40
2019-05-11T13:37:51.799Z,16.00
2019-05-11T13:40:27.720Z,12.78
2019-05-11T13:43:00.093Z,14.33
2019-05-11T13:45:32.789Z,13.20
2019-05-11T13:48:08.455Z,17.40
2019-05-11T13:50:40.465Z,18.07
2019-05-11T13:53:14.535Z,15.68
2019-05-11T13:55:48.263Z,15.83
2019-05-11T13:58:20.785Z,15.48
2019-05-11T14:00:52.227Z,17.37
2019-05-11T14:03:23.768Z,15.20
2019-05-11T14:05:58.166Z,17.62
2019-05-11T14:08:29.899Z,20.05
2019-05-11T14:11:03.235Z,16.95
2019-05-11T14:13:38.691Z,16.37
2019-05-11T14:16:14.895Z,17.60
2019-05-11T14:18:48.890Z,11.97
2019-05-11T14:21:20.791Z,14.68
2019-05-11T14:23:54.696Z,13.35
2019-05-11T14:26:28.017Z,10.90
2019-05-11T14:28:59.797Z,16.65
2019-05-11T14:31:31.997Z,12.70
2019-05-11T14:34:03.716Z,16.20
2019-05-11T14:36:35.163Z,15.32
2019-05-11T14:39:08.394Z,16.30
2019-05-11T14:41:41.924Z,16.50
2019-05-11T14:44:13.447Z,15.60
2019-05-11T14:46:44.960Z,16.87
2019-05-11T14:49:18.437Z,14.35
2019-05-11T14:51:52.279Z,12.93
2019-05-11T14:54:23.792Z,12.98
2019-05-11T14:56:58.416Z,10.98
2019-05-11T14:59:31.389Z,15.00
2019-05-11T15:02:05.146Z,13.48
2019-05-11T15:04:38.841Z,13.88
2019-05-11T15:07:10.610Z,12.25
2019-05-11T15:09:42.163Z,14.60
2019-05-11T15:12:13.699Z,11.38
2019-05-11T15:14:48.592Z,11.48
2019-05-11T15:17:20.083Z,14.95
2019-05-11T15:19:51.549Z,15.50
2019-05-11T15:22:23.043Z,14.07
2019-05-11T15:24:54.702Z,11.95
2019-05-11T15:27:26.059Z,12.05
2019-05-11T15:29:58.787Z,10.68
2019-05-11T15:32:30.391Z,11.83
2019-05-11T15:35:01.847Z,13.58
2019-05-11T15:37:33.307Z,9.50
2019-05-11T15:40:18.613Z,11.50
2019-05-11T15:42:53.133Z,11.53
2019-05-11T15:47:55.190Z,12.33
2019-05-11T15:50:28.864Z,11.60
2019-05-11T15:53:00.043Z,11.22
2019-05-11T15:55:31.657Z,11.45
2019-05-11T15:58:04.452Z,9.05
2019-05-11T16:00:39.705Z,13.70
2019-05-11T16:03:09.339Z,11.90
2019-05-11T16:05:40.852Z,12.35
2019-05-11T16:08:13.381Z,9.18
2019-05-11T16:10:44.997Z,11.28
2019-05-11T16:13:18.115Z,13.28
2019-05-11T16:18:22.852Z,21.75
2019-05-11T16:20:54.369Z,20.17
2019-05-11T16:23:28.232Z,19.82
2019-05-11T16:25:58.974Z,13.22
2019-05-11T16:28:30.997Z,12.35
2019-05-11T16:31:02.584Z,12.40
2019-05-11T16:33:34.049Z,11.30
2019-05-11T16:36:05.446Z,13.62
2019-05-11T16:38:38.010Z,14.45
2019-05-11T16:41:09.802Z,11.93
2019-05-11T16:43:43.112Z,12.05
2019-05-11T16:46:17.760Z,11.78
2019-05-11T16:48:48.953Z,9.40
2019-05-11T16:51:20.346Z,13.15
2019-05-11T16:53:51.828Z,12.90
2019-05-11T16:56:23.485Z,11.80
2019-05-11T16:58:55.302Z,12.95
2019-05-11T17:01:26.893Z,15.45
2019-05-11T17:04:00.807Z,13.53
2019-05-11T17:06:32.577Z,13.00
2019-05-11T17:09:08.598Z,10.90
2019-05-11T17:11:40.550Z,13.60
2019-05-11T17:14:12.552Z,14.28
2019-05-11T17:16:49.040Z,14.80
2019-05-11T17:19:20.733Z,17.52
2019-05-11T17:21:52.499Z,17.70
2019-05-11T17:24:24.398Z,20.27
2019-05-11T17:26:58.323Z,21.52
2019-05-11T17:29:29.925Z,19.60
2019-05-11T17:32:01.695Z,17.60
2019-05-11T17:34:33.269Z,18.55
2019-05-11T17:37:04.898Z,19.37
2019-05-11T17:39:38.559Z,18.80
2019-05-11T17:42:10.353Z,21.25
2019-05-11T17:44:43.690Z,20.65
2019-05-11T17:47:17.409Z,18.52
2019-05-11T17:49:57.361Z,20.83
2019-05-11T17:52:22.109Z,19.37
2019-05-11T17:54:55.157Z,20.40
2019-05-11T17:57:27.833Z,16.00
2019-05-11T18:00:02.150Z,17.12
2019-05-11T18:02:32.717Z,16.17
2019-05-11T18:05:05.316Z,13.90
2019-05-11T18:07:38.515Z,17.23
2019-05-11T18:10:10.374Z,14.65
2019-05-11T18:12:42.323Z,16.02
2019-05-11T18:15:14.051Z,16.50
2019-05-11T18:17:48.192Z,15.58
2019-05-11T18:20:21.968Z,15.48
2019-05-11T18:22:52.438Z,17.82
2019-05-11T18:25:23.947Z,13.83
2019-05-11T18:27:55.402Z,15.58
2019-05-11T18:30:29.120Z,15.65
2019-05-11T18:33:00.065Z,15.30
2019-05-11T18:35:31.979Z,13.85
2019-05-11T18:38:04.484Z,16.07
2019-05-11T18:40:38.191Z,17.00
2019-05-11T18:43:10.215Z,18.45
2019-05-11T18:45:43.340Z,17.70
2019-05-11T18:48:18.350Z,21.15
2019-05-11T18:50:49.311Z,16.17
2019-05-11T18:53:22.117Z,19.67
2019-05-11T18:55:55.492Z,18.55
2019-05-11T18:58:27.851Z,18.15
2019-05-11T19:00:59.931Z,18.10
2019-05-11T19:03:32.179Z,19.90
2019-05-11T19:06:04.125Z,18.30
2019-05-11T19:08:38.287Z,16.17
2019-05-11T19:11:11.135Z,20.70
2019-05-11T19:13:42.777Z,20.00
2019-05-11T19:16:14.533Z,18.15
2019-05-11T19:18:47.949Z,20.62
2019-05-11T19:21:19.190Z,18.75
2019-05-11T19:23:52.004Z,17.90
2019-05-11T19:26:23.742Z,18.57
2019-05-11T19:28:57.826Z,18.27
2019-05-11T19:31:28.838Z,19.75
2019-05-11T19:34:00.506Z,21.02
2019-05-11T19:36:32.101Z,18.85
2019-05-11T19:39:05.276Z,22.35
2019-05-11T19:41:36.982Z,20.52
2019-05-11T19:44:08.815Z,22.15
2019-05-11T19:46:42.314Z,19.82
2019-05-11T19:49:16.107Z,21.62
2019-05-11T19:51:48.799Z,24.52
2019-05-11T19:54:20.392Z,22.37
2019-05-11T19:56:52.536Z,22.95
2019-05-11T19:59:25.025Z,21.87
2019-05-11T20:01:59.801Z,20.75
2019-05-11T20:04:30.728Z,23.47
2019-05-11T20:07:02.724Z,22.77
2019-05-11T20:09:34.506Z,25.25
2019-05-11T20:12:06.341Z,24.80
2019-05-11T20:14:38.125Z,27.42
2019-05-11T20:17:09.687Z,23.65
2019-05-11T20:19:41.566Z,23.30
2019-05-11T20:22:16.682Z,31.33
2019-05-11T20:24:49.868Z,31.42
2019-05-11T20:27:21.403Z,37.17
2019-05-11T20:29:55.006Z,38.55
2019-05-11T20:32:28.418Z,37.03
2019-05-11T20:34:59.973Z,41.02
2019-05-11T20:37:32.342Z,44.65
2019-05-11T20:40:05.961Z,42.75
2019-05-11T20:42:38.244Z,43.10
2019-05-11T20:45:12.036Z,42.38
2019-05-11T20:47:48.449Z,43.75
2019-05-11T20:50:21.900Z,41.85
2019-05-11T20:52:54.757Z,42.65
2019-05-11T20:55:28.401Z,40.55
2019-05-11T20:57:59.758Z,30.00
2019-05-11T21:00:31.278Z,27.73
2019-05-11T21:03:03.008Z,25.57
2019-05-11T21:05:34.802Z,22.52
2019-05-11T21:08:08.657Z,23.62
2019-05-11T21:10:42.057Z,25.15
2019-05-11T21:13:14.872Z,24.80
2019-05-11T21:15:47.852Z,26.07
2019-05-11T21:18:20.538Z,26.23
2019-05-11T21:20:52.514Z,24.52
2019-05-11T21:23:24.746Z,23.73
2019-05-11T21:25:56.569Z,21.35
2019-05-11T21:28:30.675Z,23.02
2019-05-11T21:31:07.781Z,24.90
2019-05-11T21:33:38.952Z,25.92
2019-05-11T21:36:11.687Z,25.00
2019-05-11T21:38:44.473Z,27.93
2019-05-11T21:41:17.435Z,23.90
2019-05-11T21:43:50.140Z,28.55
2019-05-11T21:46:22.579Z,27.73
2019-05-11T21:48:58.347Z,23.42
2019-05-11T21:51:30.607Z,25.62
2019-05-11T21:54:05.023Z,26.00
2019-05-11T21:56:40.793Z,26.85
2019-05-11T21:59:11.016Z,26.27
2019-05-11T22:01:43.149Z,22.75
2019-05-11T22:04:15.275Z,23.32
2019-05-11T22:06:48.371Z,31.35
2019-05-11T22:09:20.760Z,27.80
2019-05-11T22:11:55.823Z,25.15
2019-05-11T22:14:29.892Z,24.45
2019-05-11T22:19:34.233Z,32.50
2019-05-11T22:22:20.739Z,33.15
2019-05-11T22:27:10.530Z,34.67
2019-05-11T22:29:42.174Z,37.38
2019-05-11T22:32:13.997Z,36.20
2019-05-11T22:34:47.856Z,34.33
2019-05-11T22:37:19.899Z,41.00
2019-05-11T22:39:51.564Z,41.83
2019-05-11T22:42:23.054Z,37.93
2019-05-11T22:44:54.502Z,54.63
2019-05-11T22:47:28.204Z,56.15
2019-05-11T22:50:07.804Z,70.20
2019-05-11T22:52:40.274Z,55.52
2019-05-11T22:55:12.426Z,38.98
2019-05-11T22:57:44.113Z,42.60
2019-05-11T23:00:18.329Z,44.65
2019-05-11T23:02:49.186Z,44.67
2019-05-11T23:05:20.830Z,50.85
2019-05-11T23:07:52.560Z,59.42
2019-05-11T23:10:24.180Z,62.55
2019-05-11T23:12:55.770Z,52.93
2019-05-11T23:15:27.376Z,50.80
2019-05-11T23:17:59.967Z,48.52
2019-05-11T23:20:31.689Z,51.37
2019-05-11T23:23:03.345Z,52.38
2019-05-11T23:25:34.954Z,55.78
2019-05-11T23:28:06.559Z,50.52
2019-05-11T23:30:38.957Z,50.55
2019-05-11T23:33:11.090Z,52.93
2019-05-11T23:35:42.671Z,45.30
2019-05-11T23:38:14.418Z,54.77
2019-05-11T23:40:48.098Z,48.50
2019-05-11T23:43:19.408Z,54.60
2019-05-11T23:45:51.149Z,56.60
2019-05-11T23:48:22.756Z,56.63
2019-05-11T23:50:58.009Z,54.88
2019-05-11T23:53:29.175Z,49.20
2019-05-11T23:56:00.828Z,56.33
2019-05-11T23:58:32.281Z,53.52
